createdAt,value
2018-03-22T00:00:39.130Z,96571.37
2018-03-22T00:03:07.642Z,96568.59
2018-03-22T00:05:36.016Z,96565.77
2018-03-22T00:08:04.410Z,96565.45
2018-03-22T00:10:32.757Z,96563.55
2018-03-22T00:13:01.110Z,96558.09
2018-03-22T00:15:29.542Z,96560.75
2018-03-22T00:17:57.919Z,96556.85
2018-03-22T00:20:26.294Z,96555.20
2018-03-22T00:22:54.621Z,96548.50
2018-03-22T00:25:23.015Z,96550.83
2018-03-22T00:27:51.431Z,96542.16
2018-03-22T00:30:19.810Z,96537.99
2018-03-22T00:32:48.153Z,96531.97
2018-03-22T00:35:16.495Z,96525.78
2018-03-22T00:37:44.830Z,96520.22
2018-03-22T00:40:13.182Z,96517.29
2018-03-22T00:42:41.531Z,96508.31
2018-03-22T00:45:09.882Z,96505.83
2018-03-22T00:47:38.246Z,96504.16
2018-03-22T00:50:06.636Z,96504.83
2018-03-22T00:52:34.982Z,96501.97
2018-03-22T00:55:03.348Z,96500.93
2018-03-22T00:57:31.696Z,96500.76
2018-03-22T01:00:00.039Z,96498.91
2018-03-22T01:02:28.436Z,96500.13
2018-03-22T01:04:56.803Z,96496.89
2018-03-22T01:07:25.179Z,96494.13
2018-03-22T01:09:53.658Z,96490.25
2018-03-22T01:12:22.031Z,96485.84
2018-03-22T01:14:50.370Z,96484.91
2018-03-22T01:17:18.790Z,96483.94
2018-03-22T01:19:47.170Z,96480.81
2018-03-22T01:22:15.520Z,96479.34
2018-03-22T01:24:43.920Z,96475.47
2018-03-22T01:27:12.282Z,96472.70
2018-03-22T01:29:40.682Z,96464.86
2018-03-22T01:32:09.066Z,96462.75
2018-03-22T01:34:37.398Z,96464.06
2018-03-22T01:37:05.814Z,96456.63
2018-03-22T01:39:34.147Z,96459.78
2018-03-22T01:42:02.501Z,96457.63
2018-03-22T01:44:30.843Z,96455.70
2018-03-22T01:46:59.228Z,96451.38
2018-03-22T01:49:27.568Z,96446.93
2018-03-22T01:51:56.010Z,96442.58
2018-03-22T01:54:24.335Z,96443.57
2018-03-22T01:56:52.747Z,96447.77
2018-03-22T01:59:21.073Z,96441.98
2018-03-22T02:01:49.561Z,96440.78
2018-03-22T02:04:17.870Z,96437.39
2018-03-22T02:06:46.198Z,96440.27
2018-03-22T02:09:14.626Z,96433.30
2018-03-22T02:11:42.970Z,96429.62
2018-03-22T02:14:11.390Z,96423.57
2018-03-22T02:16:39.772Z,96412.67
2018-03-22T02:19:08.144Z,96414.56
2018-03-22T02:21:36.475Z,96413.88
2018-03-22T02:24:04.836Z,96420.04
2018-03-22T02:26:33.171Z,96408.63
2018-03-22T02:29:01.551Z,96409.11
2018-03-22T02:31:29.907Z,96406.33
2018-03-22T02:33:58.265Z,96404.42
2018-03-22T02:36:26.588Z,96406.91
2018-03-22T02:38:54.970Z,96406.50
2018-03-22T02:41:23.317Z,96404.31
2018-03-22T02:43:51.788Z,96402.42
2018-03-22T02:46:20.123Z,96399.71
2018-03-22T02:48:48.587Z,96401.88
2018-03-22T02:51:16.968Z,96398.66
2018-03-22T02:53:45.442Z,96399.02
2018-03-22T02:56:13.820Z,96393.31
2018-03-22T02:58:42.179Z,96391.59
2018-03-22T03:01:10.580Z,96387.66
2018-03-22T03:03:38.926Z,96383.52
2018-03-22T03:06:07.351Z,96380.51
2018-03-22T03:08:35.678Z,96376.82
2018-03-22T03:11:04.022Z,96365.19
2018-03-22T03:13:32.343Z,96371.42
2018-03-22T03:16:00.743Z,96370.20
2018-03-22T03:18:29.127Z,96377.30
2018-03-22T03:20:57.489Z,96376.59
2018-03-22T03:23:25.818Z,96375.11
2018-03-22T03:25:54.220Z,96371.71
2018-03-22T03:28:22.566Z,96373.89
2018-03-22T03:30:51.015Z,96366.34
2018-03-22T03:33:19.406Z,96362.42
2018-03-22T03:35:47.870Z,96355.69
2018-03-22T03:38:16.256Z,96358.84
2018-03-22T03:40:44.611Z,96352.30
2018-03-22T03:43:12.950Z,96353.62
2018-03-22T03:45:41.298Z,96353.27
2018-03-22T03:48:09.635Z,96349.73
2018-03-22T03:50:37.993Z,96345.13
2018-03-22T03:53:06.383Z,96342.33
2018-03-22T03:55:34.803Z,96346.46
2018-03-22T03:58:03.182Z,96339.90
2018-03-22T04:00:31.667Z,96337.70
2018-03-22T04:03:00.006Z,96328.89
2018-03-22T04:05:28.430Z,96329.38
2018-03-22T04:07:56.796Z,96325.97
2018-03-22T04:10:25.134Z,96321.98
2018-03-22T04:12:53.527Z,96321.98
2018-03-22T04:15:21.861Z,96307.47
2018-03-22T04:17:51.242Z,96306.38
2018-03-22T04:20:19.572Z,96308.33
2018-03-22T04:22:47.957Z,96295.95
2018-03-22T04:25:16.292Z,96297.39
2018-03-22T04:27:44.651Z,96291.92
2018-03-22T04:30:12.983Z,96288.47
2018-03-22T04:32:41.338Z,96291.00
2018-03-22T04:35:10.694Z,96292.16
2018-03-22T04:37:39.063Z,96290.89
2018-03-22T04:40:07.378Z,96292.50
2018-03-22T04:42:35.738Z,96287.27
2018-03-22T04:45:04.082Z,96280.23
2018-03-22T04:47:32.444Z,96289.34
2018-03-22T04:50:00.762Z,96280.23
2018-03-22T04:52:29.132Z,96283.31
2018-03-22T04:54:57.476Z,96278.97
2018-03-22T04:57:25.855Z,96278.59
2018-03-22T04:59:54.180Z,96277.63
2018-03-22T05:02:22.512Z,96274.48
2018-03-22T05:04:50.877Z,96269.92
2018-03-22T05:07:19.306Z,96272.39
2018-03-22T05:09:47.671Z,96269.23
2018-03-22T05:12:16.063Z,96268.30
2018-03-22T05:14:44.417Z,96265.05
2018-03-22T05:17:12.823Z,96264.52
2018-03-22T05:19:41.188Z,96263.19
2018-03-22T05:22:09.525Z,96258.05
2018-03-22T05:24:38.771Z,96263.12
2018-03-22T05:27:07.094Z,96256.38
2018-03-22T05:29:35.534Z,96256.61
2018-03-22T05:32:03.910Z,96247.91
2018-03-22T05:34:32.319Z,96253.08
2018-03-22T05:37:00.660Z,96253.70
2018-03-22T05:39:29.013Z,96250.42
2018-03-22T05:41:57.343Z,96240.86
2018-03-22T05:44:25.699Z,96244.78
2018-03-22T05:46:54.031Z,96244.29
2018-03-22T05:49:22.458Z,96243.16
2018-03-22T05:51:50.818Z,96243.69
2018-03-22T05:54:19.169Z,96243.25
2018-03-22T05:56:47.598Z,96244.03
2018-03-22T05:59:16.790Z,96235.44
2018-03-22T06:01:45.152Z,96235.21
2018-03-22T06:04:13.647Z,96232.85
2018-03-22T06:06:42.028Z,96230.63
2018-03-22T06:09:10.408Z,96231.34
2018-03-22T06:11:38.782Z,96229.78
2018-03-22T06:14:07.158Z,96231.11
2018-03-22T06:16:35.575Z,96230.14
2018-03-22T06:19:03.898Z,96224.68
2018-03-22T06:21:32.296Z,96229.45
2018-03-22T06:24:00.625Z,96229.21
2018-03-22T06:26:28.983Z,96228.87
2018-03-22T06:28:57.303Z,96231.14
2018-03-22T06:31:25.665Z,96228.93
2018-03-22T06:33:54.083Z,96230.20
2018-03-22T06:36:22.446Z,96232.44
2018-03-22T06:38:50.842Z,96232.97
2018-03-22T06:41:19.214Z,96226.50
2018-03-22T06:43:47.602Z,96226.88
2018-03-22T06:46:15.978Z,96232.72
2018-03-22T06:48:44.340Z,96226.47
2018-03-22T06:51:12.686Z,96225.64
2018-03-22T06:53:41.113Z,96225.41
2018-03-22T06:56:09.485Z,96220.02
2018-03-22T06:58:37.808Z,96225.13
2018-03-22T07:01:06.155Z,96224.41
2018-03-22T07:03:34.537Z,96223.81
2018-03-22T07:06:02.876Z,96218.70
2018-03-22T07:08:31.227Z,96217.29
2018-03-22T07:10:59.666Z,96212.34
2018-03-22T07:13:28.049Z,96207.98
2018-03-22T07:15:56.374Z,96193.02
2018-03-22T07:18:24.735Z,96193.95
2018-03-22T07:20:53.076Z,96191.81
2018-03-22T07:23:21.473Z,96190.59
2018-03-22T07:25:49.785Z,96192.30
2018-03-22T07:28:18.152Z,96182.13
2018-03-22T07:30:46.690Z,96178.98
2018-03-22T07:33:15.068Z,96172.09
2018-03-22T07:35:43.395Z,96173.05
2018-03-22T07:38:11.758Z,96173.63
2018-03-22T07:40:40.088Z,96174.94
2018-03-22T07:43:14.066Z,96172.22
2018-03-22T07:45:42.378Z,96179.33
2018-03-22T07:48:10.734Z,96176.08
2018-03-22T07:50:39.144Z,96171.13
2018-03-22T07:53:07.504Z,96168.84
2018-03-22T07:55:35.847Z,96160.53
2018-03-22T07:58:04.604Z,96163.47
2018-03-22T08:00:32.931Z,96161.52
2018-03-22T08:03:01.271Z,96152.36
2018-03-22T08:05:29.721Z,96147.92
2018-03-22T08:07:58.064Z,96146.48
2018-03-22T08:10:26.399Z,96138.33
2018-03-22T08:12:54.730Z,96136.62
2018-03-22T08:15:23.095Z,96138.13
2018-03-22T08:17:51.414Z,96143.63
2018-03-22T08:20:19.835Z,96144.13
2018-03-22T08:22:48.174Z,96147.93
2018-03-22T08:25:16.532Z,96136.07
2018-03-22T08:27:44.857Z,96135.63
2018-03-22T08:30:14.210Z,96139.95
2018-03-22T08:32:42.602Z,96136.06
2018-03-22T08:35:10.948Z,96137.55
2018-03-22T08:37:39.280Z,96131.84
2018-03-22T08:40:07.675Z,96124.22
2018-03-22T08:42:35.965Z,96131.61
2018-03-22T08:45:04.335Z,96124.20
2018-03-22T08:47:32.664Z,96124.80
2018-03-22T08:50:00.999Z,96130.02
2018-03-22T08:52:29.415Z,96122.88
2018-03-22T08:54:57.811Z,96119.63
2018-03-22T08:57:26.130Z,96114.91
2018-03-22T08:59:54.466Z,96123.71
2018-03-22T09:02:22.843Z,96126.66
2018-03-22T09:04:51.168Z,96120.70
2018-03-22T09:07:19.502Z,96124.08
2018-03-22T09:09:47.923Z,96112.98
2018-03-22T09:12:16.252Z,96111.19
2018-03-22T09:14:44.619Z,96115.26
2018-03-22T09:17:12.988Z,96106.22
2018-03-22T09:19:41.639Z,96099.80
2018-03-22T09:22:10.075Z,96092.10
2018-03-22T09:24:38.395Z,96081.63
2018-03-22T09:27:06.731Z,96092.59
2018-03-22T09:29:35.042Z,96090.13
2018-03-22T09:32:03.475Z,96083.44
2018-03-22T09:34:31.856Z,96078.02
2018-03-22T09:37:00.211Z,96080.81
2018-03-22T09:39:28.612Z,96071.81
2018-03-22T09:41:56.950Z,96071.88
2018-03-22T09:44:25.276Z,96073.58
2018-03-22T09:46:53.652Z,96071.99
2018-03-22T09:49:21.974Z,96067.06
2018-03-22T09:51:50.400Z,96052.47
2018-03-22T09:54:18.722Z,96051.91
2018-03-22T09:56:47.084Z,96052.42
2018-03-22T09:59:15.407Z,96049.91
2018-03-22T10:01:43.771Z,96039.59
2018-03-22T10:04:12.079Z,96034.47
2018-03-22T10:06:40.486Z,96030.72
2018-03-22T10:09:08.833Z,96028.92
2018-03-22T10:11:37.149Z,96023.05
2018-03-22T10:14:05.495Z,96013.31
2018-03-22T10:16:33.880Z,96018.41
2018-03-22T10:19:02.236Z,96012.27
2018-03-22T10:21:30.639Z,95997.08
2018-03-22T10:23:58.995Z,95995.56
2018-03-22T10:26:27.300Z,95993.96
2018-03-22T10:28:55.636Z,95983.20
2018-03-22T10:31:24.933Z,95978.14
2018-03-22T10:33:53.266Z,95971.52
2018-03-22T10:36:21.584Z,95981.42
2018-03-22T10:38:49.999Z,95977.33
2018-03-22T10:41:18.319Z,95970.47
2018-03-22T10:43:46.669Z,95977.09
2018-03-22T10:46:14.987Z,95960.11
2018-03-22T10:48:43.329Z,95960.24
2018-03-22T10:51:11.783Z,95951.80
2018-03-22T10:53:40.126Z,95946.44
2018-03-22T10:56:08.459Z,95950.03
2018-03-22T10:58:36.826Z,95933.41
2018-03-22T11:01:10.771Z,95929.81
2018-03-22T11:03:44.846Z,95928.17
2018-03-22T11:06:13.222Z,95925.52
2018-03-22T11:08:41.673Z,95922.27
2018-03-22T11:11:10.012Z,95917.89
2018-03-22T11:13:38.335Z,95921.53
2018-03-22T11:16:06.755Z,95914.61
2018-03-22T11:18:35.137Z,95909.56
2018-03-22T11:21:03.499Z,95916.37
2018-03-22T11:23:31.823Z,95907.13
2018-03-22T11:26:00.353Z,95907.13
2018-03-22T11:28:28.723Z,95904.06
2018-03-22T11:30:57.083Z,95891.63
2018-03-22T11:33:25.397Z,95893.01
2018-03-22T11:35:53.734Z,95890.64
2018-03-22T11:38:22.052Z,95884.08
2018-03-22T11:40:50.422Z,95870.37
2018-03-22T11:43:18.803Z,95871.44
2018-03-22T11:45:47.141Z,95871.39
2018-03-22T11:48:15.549Z,95866.34
2018-03-22T11:50:43.896Z,95859.05
2018-03-22T11:53:12.308Z,95850.30
2018-03-22T11:55:40.674Z,95853.05
2018-03-22T11:58:08.991Z,95846.03
2018-03-22T12:00:37.362Z,95838.66
2018-03-22T12:03:05.682Z,95839.94
2018-03-22T12:05:34.098Z,95829.91
2018-03-22T12:08:02.491Z,95828.92
2018-03-22T12:10:30.810Z,95816.53
2018-03-22T12:12:59.154Z,95809.42
2018-03-22T12:15:27.514Z,95803.15
2018-03-22T12:17:55.858Z,95802.06
2018-03-22T12:20:24.178Z,95797.34
2018-03-22T12:22:52.524Z,95793.39
2018-03-22T12:25:20.916Z,95785.66
2018-03-22T12:27:49.258Z,95780.09
2018-03-22T12:30:17.607Z,95781.91
2018-03-22T12:32:45.951Z,95773.94
2018-03-22T12:35:14.432Z,95778.78
2018-03-22T12:37:42.784Z,95773.00
2018-03-22T12:40:11.097Z,95776.77
2018-03-22T12:42:40.202Z,95762.82
2018-03-22T12:45:08.524Z,95756.66
2018-03-22T12:47:36.884Z,95767.27
2018-03-22T12:50:05.195Z,95759.97
2018-03-22T12:52:33.542Z,95742.33
2018-03-22T12:55:01.846Z,95747.75
2018-03-22T12:57:30.258Z,95730.30
2018-03-22T12:59:58.571Z,95726.80
2018-03-22T13:02:27.316Z,95720.62
2018-03-22T13:04:55.686Z,95719.95
2018-03-22T13:07:23.992Z,95715.80
2018-03-22T13:09:52.430Z,95714.12
2018-03-22T13:12:20.831Z,95716.55
2018-03-22T13:14:49.205Z,95716.72
2018-03-22T13:17:17.559Z,95712.58
2018-03-22T13:19:45.963Z,95702.47
2018-03-22T13:22:14.335Z,95692.88
2018-03-22T13:24:42.702Z,95692.76
2018-03-22T13:27:11.020Z,95688.23
2018-03-22T13:29:39.364Z,95689.52
2018-03-22T13:32:07.684Z,95683.62
2018-03-22T13:34:36.166Z,95672.77
2018-03-22T13:37:04.477Z,95675.41
2018-03-22T13:39:32.845Z,95669.44
2018-03-22T13:42:01.170Z,95665.19
2018-03-22T13:44:29.526Z,95660.03
2018-03-22T13:46:57.936Z,95660.27
2018-03-22T13:49:26.294Z,95655.63
2018-03-22T13:51:54.617Z,95654.92
2018-03-22T13:54:23.963Z,95657.52
2018-03-22T13:56:52.291Z,95646.08
2018-03-22T13:59:20.664Z,95643.75
2018-03-22T14:01:49.007Z,95646.75
2018-03-22T14:04:17.429Z,95635.80
2018-03-22T14:06:45.803Z,95640.43
2018-03-22T14:09:14.106Z,95647.02
2018-03-22T14:11:42.516Z,95628.86
2018-03-22T14:14:10.824Z,95632.42
2018-03-22T14:16:39.162Z,95629.75
2018-03-22T14:19:07.514Z,95625.45
2018-03-22T14:21:35.852Z,95619.28
2018-03-22T14:24:04.172Z,95629.05
2018-03-22T14:26:32.586Z,95622.45
2018-03-22T14:29:00.969Z,95624.03
2018-03-22T14:31:29.335Z,95614.62
2018-03-22T14:33:57.663Z,95618.11
2018-03-22T14:36:26.091Z,95615.31
2018-03-22T14:38:54.467Z,95612.06
2018-03-22T14:41:22.808Z,95606.08
2018-03-22T14:43:51.127Z,95594.47
2018-03-22T14:46:19.524Z,95581.97
2018-03-22T14:48:47.832Z,95575.59
2018-03-22T14:51:16.270Z,95577.11
2018-03-22T14:53:44.596Z,95565.55
2018-03-22T14:56:12.934Z,95582.76
2018-03-22T14:58:41.308Z,95575.84
2018-03-22T15:01:09.793Z,95566.52
2018-03-22T15:03:38.111Z,95570.06
2018-03-22T15:06:06.423Z,95565.42
2018-03-22T15:08:34.819Z,95561.51
2018-03-22T15:11:03.123Z,95570.65
2018-03-22T15:13:31.463Z,95574.71
2018-03-22T15:15:59.791Z,95574.35
2018-03-22T15:18:28.122Z,95573.06
2018-03-22T15:20:56.506Z,95569.19
2018-03-22T15:23:24.867Z,95571.48
2018-03-22T15:25:53.192Z,95571.38
2018-03-22T15:28:21.553Z,95565.25
2018-03-22T15:30:49.910Z,95567.65
2018-03-22T15:33:18.256Z,95585.63
2018-03-22T15:35:46.565Z,95568.13
2018-03-22T15:38:14.903Z,95569.37
2018-03-22T15:40:43.215Z,95562.61
2018-03-22T15:43:11.555Z,95566.83
2018-03-22T15:45:39.973Z,95559.44
2018-03-22T15:48:08.354Z,95563.53
2018-03-22T15:50:36.670Z,95560.00
2018-03-22T15:53:05.006Z,95560.10
2018-03-22T15:55:33.323Z,95559.98
2018-03-22T15:58:01.758Z,95561.17
2018-03-22T16:00:30.078Z,95567.52
2018-03-22T16:02:58.410Z,95570.42
2018-03-22T16:05:26.844Z,95565.19
2018-03-22T16:07:55.174Z,95567.27
2018-03-22T16:10:23.530Z,95567.48
2018-03-22T16:12:51.926Z,95570.60
2018-03-22T16:15:20.273Z,95563.35
2018-03-22T16:17:48.691Z,95567.83
2018-03-22T16:20:17.100Z,95563.16
2018-03-22T16:22:45.401Z,95585.56
2018-03-22T16:25:13.767Z,95575.43
2018-03-22T16:27:42.091Z,95597.22
2018-03-22T16:30:10.440Z,95592.36
2018-03-22T16:32:38.763Z,95578.29
2018-03-22T16:35:07.245Z,95586.86
2018-03-22T16:37:35.586Z,95598.62
2018-03-22T16:40:03.990Z,95594.29
2018-03-22T16:42:32.371Z,95594.89
2018-03-22T16:45:00.674Z,95595.66
2018-03-22T16:47:29.012Z,95590.84
2018-03-22T16:49:57.360Z,95595.58
2018-03-22T16:52:25.686Z,95600.04
2018-03-22T16:54:54.604Z,95595.54
2018-03-22T16:57:22.955Z,95622.73
2018-03-22T16:59:51.947Z,95588.05
2018-03-22T17:02:20.272Z,95591.16
2018-03-22T17:04:48.592Z,95586.66
2018-03-22T17:07:16.947Z,95594.27
2018-03-22T17:09:45.357Z,95585.38
2018-03-22T17:12:13.703Z,95594.23
2018-03-22T17:14:42.038Z,95595.89
2018-03-22T17:17:10.385Z,95592.40
2018-03-22T17:19:38.716Z,95596.03
2018-03-22T17:22:07.063Z,95605.66
2018-03-22T17:24:35.462Z,95602.47
2018-03-22T17:27:03.791Z,95598.06
2018-03-22T17:29:32.136Z,95598.88
2018-03-22T17:32:00.558Z,95593.33
2018-03-22T17:34:28.880Z,95592.84
2018-03-22T17:36:57.312Z,95590.76
2018-03-22T17:39:25.684Z,95589.93
2018-03-22T17:41:54.086Z,95589.50
2018-03-22T17:44:22.410Z,95587.13
2018-03-22T17:46:50.833Z,95586.63
2018-03-22T17:49:19.164Z,95582.41
2018-03-22T17:51:47.527Z,95585.61
2018-03-22T17:54:15.961Z,95578.94
2018-03-22T17:56:44.320Z,95583.14
2018-03-22T17:59:12.656Z,95582.48
2018-03-22T18:01:41.024Z,95591.97
2018-03-22T18:04:09.364Z,95584.23
2018-03-22T18:06:37.679Z,95592.36
2018-03-22T18:09:06.044Z,95590.28
2018-03-22T18:11:34.383Z,95591.87
2018-03-22T18:14:02.783Z,95590.72
2018-03-22T18:16:31.146Z,95587.14
2018-03-22T18:18:59.534Z,95584.96
2018-03-22T18:21:27.932Z,95579.00
2018-03-22T18:23:57.218Z,95576.42
2018-03-22T18:26:25.532Z,95575.47
2018-03-22T18:28:53.902Z,95574.59
2018-03-22T18:31:22.252Z,95579.27
2018-03-22T18:33:50.615Z,95578.55
2018-03-22T18:36:18.967Z,95584.78
2018-03-22T18:38:47.387Z,95589.91
2018-03-22T18:41:15.767Z,95581.73
2018-03-22T18:43:44.119Z,95579.78
2018-03-22T18:46:12.459Z,95583.73
2018-03-22T18:48:40.811Z,95579.13
2018-03-22T18:51:09.166Z,95585.94
2018-03-22T18:53:37.507Z,95583.28
2018-03-22T18:56:05.838Z,95584.03
2018-03-22T18:58:34.197Z,95580.91
2018-03-22T19:01:02.592Z,95582.08
2018-03-22T19:03:31.062Z,95573.85
2018-03-22T19:05:59.411Z,95569.88
2018-03-22T19:08:27.751Z,95565.33
2018-03-22T19:10:56.111Z,95561.56
2018-03-22T19:13:24.442Z,95567.96
2018-03-22T19:15:52.799Z,95560.77
2018-03-22T19:18:21.124Z,95562.52
2018-03-22T19:20:49.515Z,95561.55
2018-03-22T19:23:17.852Z,95564.67
2018-03-22T19:25:46.263Z,95568.81
2018-03-22T19:28:14.641Z,95565.34
2018-03-22T19:30:42.984Z,95566.11
2018-03-22T19:33:11.394Z,95570.36
2018-03-22T19:35:39.739Z,95568.52
2018-03-22T19:38:08.156Z,95570.27
2018-03-22T19:40:36.497Z,95560.00
2018-03-22T19:43:04.839Z,95561.98
2018-03-22T19:45:33.173Z,95562.77
2018-03-22T19:48:01.623Z,95559.19
2018-03-22T19:50:29.972Z,95549.20
2018-03-22T19:52:58.329Z,95542.80
2018-03-22T19:55:26.686Z,95548.11
2018-03-22T19:57:55.099Z,95550.53
2018-03-22T20:00:23.448Z,95549.30
2018-03-22T20:02:51.835Z,95539.86
2018-03-22T20:05:20.157Z,95546.03
2018-03-22T20:07:48.509Z,95537.55
2018-03-22T20:10:16.876Z,95542.24
2018-03-22T20:12:45.237Z,95544.39
2018-03-22T20:15:13.566Z,95533.22
2018-03-22T20:17:41.910Z,95537.20
2018-03-22T20:20:10.282Z,95540.10
2018-03-22T20:22:38.652Z,95540.95
2018-03-22T20:25:07.000Z,95537.56
2018-03-22T20:27:35.411Z,95542.25
2018-03-22T20:30:03.738Z,95536.90
2018-03-22T20:32:32.095Z,95531.69
2018-03-22T20:35:00.481Z,95534.48
2018-03-22T20:37:28.904Z,95532.08
2018-03-22T20:39:57.311Z,95528.30
2018-03-22T20:42:25.691Z,95530.64
2018-03-22T20:44:54.002Z,95523.54
2018-03-22T20:47:22.395Z,95514.86
2018-03-22T20:49:50.815Z,95510.48
2018-03-22T20:52:19.194Z,95508.31
2018-03-22T20:54:47.587Z,95512.30
2018-03-22T20:57:15.934Z,95509.69
2018-03-22T20:59:44.274Z,95505.37
2018-03-22T21:02:12.678Z,95504.57
2018-03-22T21:04:41.016Z,95506.22
2018-03-22T21:07:09.330Z,95508.08
2018-03-22T21:09:37.696Z,95509.27
2018-03-22T21:12:06.042Z,95507.28
2018-03-22T21:14:34.403Z,95506.45
2018-03-22T21:17:02.724Z,95514.73
2018-03-22T21:19:31.087Z,95499.29
2018-03-22T21:21:59.444Z,95497.90
2018-03-22T21:24:27.807Z,95490.27
2018-03-22T21:26:56.211Z,95493.72
2018-03-22T21:29:24.571Z,95503.81
2018-03-22T21:31:52.955Z,95490.45
2018-03-22T21:34:21.328Z,95487.80
2018-03-22T21:36:49.683Z,95490.58
2018-03-22T21:39:18.034Z,95487.31
2018-03-22T21:41:58.238Z,95481.16
2018-03-22T21:44:26.657Z,95486.63
2018-03-22T21:46:54.976Z,95477.27
2018-03-22T21:49:23.332Z,95471.40
2018-03-22T21:54:53.653Z,95470.67
2018-03-22T21:57:21.981Z,95459.17
2018-03-22T21:59:50.320Z,95460.42
2018-03-22T22:02:18.748Z,95457.61
2018-03-22T22:04:47.113Z,95457.87
2018-03-22T22:07:15.450Z,95459.36
2018-03-22T22:09:43.812Z,95452.45
2018-03-22T22:12:12.159Z,95448.05
2018-03-22T22:14:40.521Z,95447.40
2018-03-22T22:17:08.939Z,95439.38
2018-03-22T22:19:37.619Z,95434.81
2018-03-22T22:22:06.003Z,95429.91
2018-03-22T22:24:34.321Z,95424.95
2018-03-22T22:27:02.702Z,95428.27
2018-03-22T22:29:31.027Z,95420.83
2018-03-22T22:31:59.437Z,95414.31
2018-03-22T22:34:27.758Z,95412.97
2018-03-22T22:36:56.146Z,95409.89
2018-03-22T22:39:24.471Z,95404.57
2018-03-22T22:41:52.902Z,95403.88
2018-03-22T22:44:21.278Z,95397.61
2018-03-22T22:46:49.640Z,95401.22
2018-03-22T22:49:18.036Z,95397.47
2018-03-22T22:51:46.415Z,95394.36
2018-03-22T22:54:14.766Z,95396.23
2018-03-22T22:56:43.166Z,95395.05
2018-03-22T22:59:12.577Z,95389.34
2018-03-22T23:01:41.035Z,95390.29
2018-03-22T23:04:09.371Z,95383.50
2018-03-22T23:06:37.811Z,95393.00
2018-03-22T23:09:06.163Z,95386.36
2018-03-22T23:11:34.523Z,95382.82
2018-03-22T23:14:02.939Z,95378.69
2018-03-22T23:16:31.287Z,95376.30
2018-03-22T23:18:59.622Z,95369.16
2018-03-22T23:21:28.184Z,95365.00
2018-03-22T23:23:56.668Z,95366.65
2018-03-22T23:26:25.035Z,95370.18
2018-03-22T23:28:53.377Z,95367.25
2018-03-22T23:31:21.723Z,95358.31
2018-03-22T23:33:50.066Z,95351.72
2018-03-22T23:36:18.400Z,95351.45
2018-03-22T23:38:46.756Z,95358.74
2018-03-22T23:41:15.084Z,95350.84
2018-03-22T23:43:43.485Z,95351.43
2018-03-22T23:46:11.872Z,95350.08
2018-03-22T23:48:40.217Z,95345.27
2018-03-22T23:51:08.542Z,95343.77
2018-03-22T23:53:36.999Z,95353.55
2018-03-22T23:56:05.354Z,95347.93
2018-03-22T23:58:33.722Z,95347.20
